Time;durP1;ratioP1;P1;durP2;ratioP2;P2;SDS_P1;SDS_P2;PMS_P1;PMS_P2;Temp;Humidity;BMP_temperature;BMP_pressure;BME280_temperature;BME280_humidity;BME280_pressure;Samples;Min_cycle;Max_cycle;Signal;HPM_P1;HPM_P2
2021/12/16 00:07:44;;;;;;;79.85;37.72;;;;;;;7.87;100.00;103204.28;2089840;28;20041;-68
2021/12/16 00:08:58;;;;;;;77.78;36.70;;;;;;;7.85;100.00;103204.31;2103376;28;20477;-68
2021/12/16 00:11:12;;;;;;;75.22;36.03;;;;;;;7.84;100.00;103199.94;2107388;28;20044;-68
2021/12/16 00:34:23;;;;;;;73.10;34.70;;;;;;;7.86;100.00;103211.25;2098425;28;20029;-69
2021/12/16 00:35:23;;;;;;;74.40;35.97;;;;;;;7.86;100.00;103203.44;2107144;28;20020;-68
2021/12/16 00:36:24;;;;;;;72.67;37.37;;;;;;;7.87;100.00;103209.50;2107175;28;20024;-69
2021/12/16 00:37:26;;;;;;;73.10;36.78;;;;;;;7.87;100.00;103209.50;2107153;28;20035;-68
2021/12/16 00:38:27;;;;;;;76.80;36.65;;;;;;;7.85;100.00;103201.72;2107152;28;20514;-68
2021/12/16 00:39:33;;;;;;;73.72;35.42;;;;;;;7.86;100.00;103207.75;2107141;28;20039;-67
2021/12/16 00:40:33;;;;;;;70.63;35.92;;;;;;;7.85;100.00;103208.63;2107085;28;20445;-68
2021/12/16 00:41:34;;;;;;;71.50;36.97;;;;;;;7.84;100.00;103212.94;2107049;28;20024;-67
2021/12/16 00:42:45;;;;;;;74.18;37.55;;;;;;;7.85;100.00;103211.22;2098063;28;20035;-68
2021/12/16 00:43:59;;;;;;;73.55;36.13;;;;;;;7.85;100.00;103211.22;2099593;28;20047;-68
2021/12/16 00:45:09;;;;;;;66.85;33.90;;;;;;;7.85;100.00;103213.84;2097871;28;20032;-68
2021/12/16 00:46:17;;;;;;;77.72;37.00;;;;;;;7.84;100.00;103217.31;2099485;28;20478;-68
2021/12/16 00:47:46;;;;;;;69.28;34.67;;;;;;;7.84;100.00;103214.69;2097952;28;20073;-68
2021/12/16 00:49:50;;;;;;;67.83;34.33;;;;;;;7.83;100.00;103212.94;2107128;28;20028;-68
2021/12/16 00:54:42;;;;;;;65.28;33.85;;;;;;;7.85;100.00;103213.84;2106941;28;20039;-68
2021/12/16 00:55:51;;;;;;;81.28;36.75;;;;;;;7.84;100.00;103210.34;2106901;28;20028;-68
2021/12/16 00:56:58;;;;;;;70.78;36.03;;;;;;;7.85;100.00;103214.72;2106764;28;20019;-67
2021/12/16 00:57:58;;;;;;;68.10;35.33;;;;;;;7.85;100.00;103211.22;2106888;28;20020;-68
2021/12/16 00:59:01;;;;;;;76.30;35.87;;;;;;;7.85;100.00;103216.44;2106870;28;20366;-68
2021/12/16 01:00:04;;;;;;;79.70;38.33;;;;;;;7.85;100.00;103221.63;2106974;28;20039;-68
2021/12/16 01:01:26;;;;;;;74.00;36.08;;;;;;;7.83;100.00;103212.94;2106251;28;20040;-69
2021/12/16 01:02:48;;;;;;;74.30;35.63;;;;;;;7.82;100.00;103211.19;2097910;28;20409;-69
2021/12/16 01:05:19;;;;;;;74.77;35.43;;;;;;;7.83;100.00;103216.41;2106834;28;20125;-69
2021/12/16 01:08:52;;;;;;;71.35;36.65;;;;;;;7.84;100.00;103214.69;2106847;28;20416;-68
2021/12/16 01:34:45;;;;;;;72.78;34.00;;;;;;;7.86;100.00;103220.75;2106854;28;20131;-68
2021/12/16 01:42:35;;;;;;;70.03;34.03;;;;;;;7.84;100.00;103225.09;2106153;28;20036;-69
2021/12/16 01:49:48;;;;;;;71.13;36.35;;;;;;;7.84;100.00;103241.53;2106685;28;20047;-68
2021/12/16 01:50:53;;;;;;;67.38;32.88;;;;;;;7.83;100.00;103245.00;2106630;28;20028;-68
2021/12/16 01:52:06;;;;;;;73.88;35.67;;;;;;;7.86;100.00;103237.25;2106608;28;20036;-69
2021/12/16 01:54:39;;;;;;;67.63;33.13;;;;;;;7.86;100.00;103244.16;2106757;28;20036;-68
2021/12/16 01:55:53;;;;;;;67.60;33.30;;;;;;;7.86;100.00;103247.66;2097561;28;20025;-69
2021/12/16 01:57:03;;;;;;;70.03;33.28;;;;;;;7.86;100.00;103249.38;2099602;28;20563;-69
2021/12/16 01:58:13;;;;;;;60.05;33.47;;;;;;;7.86;100.00;103246.75;2106470;28;20064;-67
2021/12/16 01:59:19;;;;;;;69.13;34.47;;;;;;;7.85;100.00;103247.63;2106601;28;20062;-68
2021/12/16 02:00:42;;;;;;;71.03;35.22;;;;;;;7.86;100.00;103249.38;2106589;28;20028;-68
2021/12/16 02:01:43;;;;;;;60.95;32.22;;;;;;;7.86;100.00;103251.97;2106542;28;20020;-67
2021/12/16 02:02:50;;;;;;;72.35;36.97;;;;;;;7.86;100.00;103254.56;2106439;28;20538;-69
2021/12/16 02:04:00;;;;;;;69.68;35.35;;;;;;;7.85;100.00;103252.84;2106553;28;20027;-69
2021/12/16 02:06:07;;;;;;;65.35;33.92;;;;;;;7.84;100.00;103256.31;2105892;28;20020;-68
2021/12/16 02:06:58;;;;;;;70.90;33.70;;;;;;;7.85;100.00;103250.22;2092917;28;20032;-68
2021/12/16 02:08:19;;;;;;;75.00;33.40;;;;;;;7.85;100.00;103242.44;2106550;28;20024;-68
2021/12/16 02:09:30;;;;;;;67.50;32.65;;;;;;;7.84;100.00;103257.16;2106492;28;20035;-67
2021/12/16 02:10:39;;;;;;;66.00;31.90;;;;;;;7.84;100.00;103261.50;2106501;28;20032;-68
2021/12/16 02:11:52;;;;;;;61.33;30.50;;;;;;;7.84;100.00;103257.16;2106580;28;20023;-68
2021/12/16 02:13:14;;;;;;;65.05;33.90;;;;;;;7.87;100.00;103251.09;2106520;28;20072;-67
2021/12/16 02:27:27;;;;;;;67.53;32.78;;;;;;;7.84;100.00;103256.31;2106453;28;20028;-68
2021/12/16 02:31:21;;;;;;;66.97;34.10;;;;;;;7.82;100.00;103260.59;2106395;28;20031;-68
2021/12/16 02:32:48;;;;;;;60.85;29.83;;;;;;;7.81;100.00;103261.47;2106391;28;20028;-68
2021/12/16 02:35:11;;;;;;;63.30;33.10;;;;;;;7.80;100.00;103268.38;2106417;28;20031;-68
2021/12/16 02:36:25;;;;;;;73.60;34.92;;;;;;;7.79;100.00;103266.66;2106325;28;20040;-67
2021/12/16 02:37:30;;;;;;;68.63;33.67;;;;;;;7.79;100.00;103269.25;2106338;28;20061;-69
2021/12/16 02:38:33;;;;;;;73.65;34.97;;;;;;;7.79;100.00;103265.75;2106406;28;20051;-67
2021/12/16 02:39:34;;;;;;;67.43;34.38;;;;;;;7.80;100.00;103277.94;2106390;28;20487;-67
2021/12/16 02:40:35;;;;;;;72.60;35.05;;;;;;;7.80;100.00;103270.13;2097339;28;20102;-69
2021/12/16 02:41:39;;;;;;;66.32;36.42;;;;;;;7.82;100.00;103268.41;2097542;28;20024;-68
2021/12/16 02:42:54;;;;;;;68.78;34.50;;;;;;;7.81;100.00;103266.66;2106343;28;20039;-68
2021/12/16 02:49:14;;;;;;;58.22;30.13;;;;;;;7.76;100.00;103270.97;2106421;28;20028;-68
2021/12/16 02:50:16;;;;;;;68.60;35.03;;;;;;;7.76;100.00;103278.75;2106257;28;20481;-68
2021/12/16 02:51:21;;;;;;;72.90;33.85;;;;;;;7.76;100.00;103277.00;2106421;28;20028;-69
2021/12/16 02:52:24;;;;;;;66.20;33.70;;;;;;;7.77;100.00;103277.91;2106370;28;20059;-68
2021/12/16 02:53:24;;;;;;;65.68;35.00;;;;;;;7.76;100.00;103278.75;2097250;28;20021;-68
2021/12/16 02:54:27;;;;;;;65.45;35.03;;;;;;;7.78;100.00;103277.03;2098765;28;20077;-68
2021/12/16 02:55:27;;;;;;;68.07;36.10;;;;;;;7.78;100.00;103282.22;2107826;28;20024;-68
2021/12/16 02:56:29;;;;;;;68.03;35.13;;;;;;;7.80;100.00;103285.72;2107972;28;20042;-68
2021/12/16 02:57:30;;;;;;;66.85;33.22;;;;;;;7.79;100.00;103278.75;2107823;28;20028;-68
2021/12/16 02:58:31;;;;;;;;;;;;;;;7.80;100.00;103270.13;2108304;28;20024;-69
2021/12/16 02:59:32;;;;;;;64.75;32.45;;;;;;;7.79;100.00;103273.56;2107860;28;19919;-68
2021/12/16 03:00:39;;;;;;;73.50;33.63;;;;;;;7.80;100.00;103270.13;2107901;28;20341;-68
2021/12/16 03:01:48;;;;;;;68.85;32.17;;;;;;;7.77;100.00;103270.94;2107848;28;20081;-68
2021/12/16 03:02:51;;;;;;;62.58;32.83;;;;;;;7.77;100.00;103276.16;2107891;28;20100;-68
2021/12/16 03:03:53;;;;;;;61.70;31.35;;;;;;;7.78;100.00;103271.84;2107967;28;20189;-68
2021/12/16 03:04:55;;;;;;;60.47;33.20;;;;;;;7.76;100.00;103278.75;2107742;28;20020;-68
2021/12/16 03:05:55;;;;;;;;;;;;;;;7.78;100.00;103272.72;2108277;28;20024;-67
2021/12/16 03:06:58;;;;;;;65.05;31.67;;;;;;;7.78;100.00;103277.03;2098771;28;20266;-68
2021/12/16 03:07:59;;;;;;;70.20;32.55;;;;;;;7.76;100.00;103278.75;2090742;28;20021;-68
2021/12/16 03:09:00;;;;;;;67.30;33.03;;;;;;;7.77;100.00;103273.56;2090424;28;20084;-68
2021/12/16 03:13:35;;;;;;;67.35;33.22;;;;;;;7.78;100.00;103271.84;2107783;28;20051;-69
2021/12/16 03:14:43;;;;;;;65.03;34.60;;;;;;;7.78;100.00;103271.84;2107678;28;20024;-68
2021/12/16 03:17:09;;;;;;;64.53;33.97;;;;;;;7.77;100.00;103264.91;2107821;28;20066;-68
2021/12/16 03:20:39;;;;;;;69.85;34.35;;;;;;;7.75;100.00;103272.69;2107834;28;20100;-68
2021/12/16 03:21:48;;;;;;;64.57;33.78;;;;;;;7.76;100.00;103268.38;2107686;28;20511;-70
2021/12/16 03:27:32;;;;;;;65.63;34.80;;;;;;;7.75;100.00;103271.81;2107669;28;20032;-68
2021/12/16 03:34:09;;;;;;;66.97;32.50;;;;;;;7.78;100.00;103266.63;2107717;28;20477;-68
2021/12/16 03:35:32;;;;;;;60.28;33.33;;;;;;;7.78;100.00;103271.84;2107516;28;20376;-68
2021/12/16 03:36:48;;;;;;;65.93;31.15;;;;;;;7.77;100.00;103276.16;2107591;28;20032;-68
2021/12/16 03:37:50;;;;;;;61.53;31.33;;;;;;;7.76;100.00;103269.22;2107509;28;20028;-68
2021/12/16 03:39:01;;;;;;;58.90;30.40;;;;;;;7.76;100.00;103268.38;2107536;28;20070;-69
2021/12/16 03:40:08;;;;;;;63.45;33.85;;;;;;;7.76;100.00;103273.56;2106877;28;20086;-69
2021/12/16 03:41:09;;;;;;;58.92;31.33;;;;;;;7.76;100.00;103278.75;2098406;28;20035;-69
2021/12/16 03:42:11;;;;;;;58.75;30.95;;;;;;;7.75;100.00;103277.00;2098552;28;20035;-69
2021/12/16 03:43:16;;;;;;;65.78;33.28;;;;;;;7.73;100.00;103272.66;2107487;28;20028;-68
2021/12/16 03:44:26;;;;;;;65.97;35.35;;;;;;;7.73;100.00;103276.97;2107512;28;20073;-68
2021/12/16 03:46:59;;;;;;;61.90;31.95;;;;;;;7.73;100.00;103269.19;2103220;28;20031;-68
2021/12/16 03:48:03;;;;;;;64.47;33.73;;;;;;;7.73;100.00;103275.25;2107531;28;20024;-69
2021/12/16 03:49:14;;;;;;;71.90;33.47;;;;;;;7.73;100.00;103266.59;2107410;28;20028;-68
2021/12/16 03:50:19;;;;;;;67.10;33.63;;;;;;;7.73;100.00;103274.38;2107599;28;20098;-69
2021/12/16 03:51:34;;;;;;;62.63;30.85;;;;;;;7.71;100.00;103270.91;2107392;28;20035;-68
2021/12/16 03:52:36;;;;;;;61.50;33.45;;;;;;;7.71;100.00;103277.00;2107299;28;20503;-68
2021/12/16 03:53:38;;;;;;;62.60;32.65;;;;;;;7.70;100.00;103283.03;2106809;28;20024;-68
2021/12/16 03:54:49;;;;;;;60.67;31.70;;;;;;;7.71;100.00;103286.50;2106836;28;20027;-69
2021/12/16 03:55:50;;;;;;;63.58;29.95;;;;;;;7.72;100.00;103294.31;2107456;28;20440;-68
2021/12/16 03:56:51;;;;;;;61.85;33.58;;;;;;;7.72;100.00;103291.72;2107408;28;20142;-68
2021/12/16 03:57:52;;;;;;;67.22;33.58;;;;;;;7.72;100.00;103290.84;2107390;28;20024;-68
2021/12/16 03:58:52;;;;;;;62.40;33.00;;;;;;;7.70;100.00;103290.81;2107356;28;20024;-68
2021/12/16 03:59:53;;;;;;;61.60;32.30;;;;;;;7.67;100.00;103293.41;2107325;28;20028;-69
2021/12/16 04:00:59;;;;;;;58.03;31.15;;;;;;;7.67;100.00;103295.13;2107388;28;20077;-68
2021/12/16 04:02:13;;;;;;;67.38;32.17;;;;;;;7.67;100.00;103297.75;2107410;28;20326;-69
2021/12/16 04:03:14;;;;;;;64.70;33.03;;;;;;;7.68;100.00;103297.75;2107316;28;20031;-68
2021/12/16 04:04:15;;;;;;;65.40;33.28;;;;;;;7.66;100.00;103299.47;2107260;28;20027;-68
2021/12/16 04:05:17;;;;;;;59.22;33.00;;;;;;;7.65;100.00;103302.03;2106875;28;20046;-68
2021/12/16 04:06:20;;;;;;;64.00;31.85;;;;;;;7.65;100.00;103307.22;2106969;28;20084;-69
2021/12/16 04:07:23;;;;;;;60.03;34.08;;;;;;;7.64;100.00;103296.00;2107339;28;20046;-69
2021/12/16 04:08:23;;;;;;;58.17;33.00;;;;;;;7.64;100.00;103293.38;2107236;28;20035;-69
2021/12/16 04:09:24;;;;;;;57.67;32.53;;;;;;;7.66;100.00;103294.25;2107294;28;20376;-69
2021/12/16 04:10:35;;;;;;;60.92;32.63;;;;;;;7.67;100.00;103284.75;2106631;28;20051;-68
2021/12/16 04:11:43;;;;;;;60.63;32.47;;;;;;;7.64;100.00;103290.78;2106770;28;20420;-69
2021/12/16 04:12:43;;;;;;;63.05;30.02;;;;;;;7.63;100.00;103298.56;2107200;28;20077;-68
2021/12/16 04:13:56;;;;;;;59.13;32.30;;;;;;;7.61;100.00;103288.16;2098330;28;20447;-68
2021/12/16 04:15:01;;;;;;;65.38;34.38;;;;;;;7.58;100.00;103290.72;2091656;28;20459;-68
2021/12/16 04:16:01;;;;;;;62.53;31.65;;;;;;;7.59;100.00;103302.84;2098831;28;20073;-68
2021/12/16 04:17:04;;;;;;;62.35;32.42;;;;;;;7.60;100.00;103299.41;2107315;28;20023;-69
2021/12/16 04:18:05;;;;;;;61.47;32.95;;;;;;;7.60;100.00;103296.81;2098133;28;20020;-68
2021/12/16 04:19:11;;;;;;;59.13;33.75;;;;;;;7.62;100.00;103297.69;2098339;28;20024;-68
2021/12/16 04:20:13;;;;;;;62.67;33.58;;;;;;;7.63;100.00;103294.22;2106716;28;20020;-68
2021/12/16 04:21:15;;;;;;;63.53;32.60;;;;;;;7.65;100.00;103292.53;2107204;28;20039;-68
2021/12/16 04:22:20;;;;;;;56.33;31.95;;;;;;;7.65;100.00;103299.44;2098153;28;20021;-68
2021/12/16 04:23:20;;;;;;;67.72;31.75;;;;;;;7.66;100.00;103299.47;2098803;28;20067;-68
2021/12/16 04:24:22;;;;;;;63.40;32.88;;;;;;;7.65;100.00;103297.72;2107174;28;20412;-68
2021/12/16 04:25:23;;;;;;;;;;;;;;;7.65;100.00;103302.91;2107509;28;20093;-68
2021/12/16 04:26:28;;;;;;;55.33;30.40;;;;;;;7.64;100.00;103292.50;2110006;28;19912;-68
2021/12/16 04:27:30;;;;;;;58.45;31.17;;;;;;;7.62;100.00;103297.69;2107125;28;20040;-68
2021/12/16 04:28:31;;;;;;;56.83;33.25;;;;;;;7.59;100.00;103298.53;2107107;28;20536;-68
2021/12/16 04:29:31;;;;;;;60.83;30.95;;;;;;;7.57;100.00;103299.38;2107231;28;20024;-68
2021/12/16 04:30:35;;;;;;;62.83;31.95;;;;;;;7.57;100.00;103300.22;2107453;28;20337;-69
2021/12/16 04:31:37;;;;;;;65.35;32.78;;;;;;;7.57;100.00;103294.19;2107307;28;20508;-68
2021/12/16 04:32:37;;;;;;;61.38;32.10;;;;;;;7.58;100.00;103295.91;2107210;28;20022;-69
2021/12/16 04:33:39;;;;;;;58.40;30.98;;;;;;;7.57;100.00;103297.63;2107199;28;20027;-68
2021/12/16 04:34:40;;;;;;;57.42;31.98;;;;;;;7.59;100.00;103289.84;2107453;28;20019;-68
2021/12/16 04:35:40;;;;;;;59.30;33.50;;;;;;;7.58;100.00;103301.13;2107290;28;20743;-68
2021/12/16 04:36:41;;;;;;;62.88;34.15;;;;;;;7.57;100.00;103294.19;2107399;28;20032;-68
2021/12/16 04:37:42;;;;;;;67.07;32.88;;;;;;;7.57;100.00;103291.59;2107266;28;20065;-68
2021/12/16 04:38:45;;;;;;;63.57;32.67;;;;;;;7.56;100.00;103293.31;2107277;28;20043;-68
2021/12/16 04:39:46;;;;;;;58.42;31.63;;;;;;;7.55;100.00;103298.47;2107123;28;20142;-67
2021/12/16 04:40:48;;;;;;;;;;;;;;;7.57;100.00;103294.19;2107597;28;20039;-68
2021/12/16 04:41:50;;;;;;;;;;;;;;;7.57;100.00;103288.97;2107549;28;20310;-69
2021/12/16 04:42:52;;;;;;;;;;;;;;;7.56;100.00;103292.44;2107505;28;19923;-68
2021/12/16 04:43:55;;;;;;;63.58;26.98;;;;;;;7.53;100.00;103287.22;2107035;28;19937;-68
2021/12/16 04:44:55;;;;;;;57.65;28.90;;;;;;;7.50;100.00;103293.25;2106906;28;20481;-68
2021/12/16 04:45:56;;;;;;;55.60;30.33;;;;;;;7.50;100.00;103293.25;2107048;28;20020;-68
2021/12/16 04:46:59;;;;;;;56.80;30.30;;;;;;;7.48;100.00;103279.38;2107043;28;20053;-68
2021/12/16 04:48:00;;;;;;;65.22;31.70;;;;;;;7.47;100.00;103288.03;2106873;28;20028;-69
2021/12/16 04:49:02;;;;;;;66.25;32.08;;;;;;;7.44;100.00;103286.28;2107014;28;20187;-68
2021/12/16 04:50:04;;;;;;;59.63;31.17;;;;;;;7.43;100.00;103289.69;2097962;28;20029;-68
2021/12/16 04:51:05;;;;;;;59.67;31.95;;;;;;;7.40;100.00;103286.22;2098129;28;20103;-68
2021/12/16 04:52:12;;;;;;;60.45;31.20;;;;;;;7.39;100.00;103287.94;2107152;28;20059;-69
2021/12/16 04:53:12;;;;;;;61.58;31.73;;;;;;;7.39;100.00;103290.53;2106977;28;20469;-68
2021/12/16 04:54:17;;;;;;;62.73;32.90;;;;;;;7.41;100.00;103291.44;2097916;28;20111;-68
2021/12/16 04:55:20;;;;;;;55.80;31.48;;;;;;;7.43;100.00;103287.09;2097889;28;20514;-69
2021/12/16 04:56:21;;;;;;;59.95;32.08;;;;;;;7.39;100.00;103285.31;2098186;28;20099;-69
2021/12/16 04:57:22;;;;;;;58.50;30.98;;;;;;;7.38;100.00;103285.31;2107006;28;20035;-68
2021/12/16 04:58:23;;;;;;;68.07;32.63;;;;;;;7.35;100.00;103283.56;2106958;28;20089;-68
2021/12/16 04:59:24;;;;;;;61.95;31.02;;;;;;;7.31;100.00;103282.66;2107046;28;20472;-68
2021/12/16 05:00:25;;;;;;;62.00;31.00;;;;;;;7.25;100.00;103285.19;2106845;28;20020;-68
2021/12/16 05:01:26;;;;;;;;;;;;;;;7.25;100.00;103290.38;2107371;28;20054;-68
2021/12/16 05:02:27;;;;;;;58.63;29.75;;;;;;;7.26;100.00;103283.47;2107068;28;20384;-68
2021/12/16 05:03:27;;;;;;;63.03;30.55;;;;;;;7.20;100.00;103290.34;2106995;28;20024;-69
2021/12/16 05:04:28;;;;;;;60.42;30.38;;;;;;;7.14;100.00;103284.19;2106992;28;20081;-69
2021/12/16 05:05:28;;;;;;;57.77;32.33;;;;;;;7.08;100.00;103285.00;2106885;28;20032;-67
2021/12/16 05:06:28;;;;;;;64.87;31.73;;;;;;;7.03;100.00;103286.66;2106977;28;20032;-68
2021/12/16 05:07:29;;;;;;;60.07;30.70;;;;;;;6.99;100.00;103279.69;2097911;28;20452;-69
2021/12/16 05:08:29;;;;;;;60.97;32.67;;;;;;;6.98;100.00;103284.00;2097825;28;20039;-68
2021/12/16 05:10:42;;;;;;;56.53;29.50;;;;;;;6.99;100.00;103284.91;2107032;28;20439;-69
2021/12/16 05:11:43;;;;;;;65.22;30.80;;;;;;;6.91;100.00;103288.25;2106853;28;20039;-69
2021/12/16 05:12:50;;;;;;;59.85;32.53;;;;;;;6.87;100.00;103283.88;2106828;28;20035;-69
2021/12/16 05:13:50;;;;;;;59.08;30.80;;;;;;;6.86;100.00;103289.06;2106901;28;20032;-68
2021/12/16 05:14:51;;;;;;;59.85;30.15;;;;;;;6.90;100.00;103289.13;2106894;28;20024;-69
2021/12/16 05:15:53;;;;;;;58.47;31.42;;;;;;;6.94;100.00;103293.50;2106802;28;20558;-70
2021/12/16 05:16:57;;;;;;;58.42;31.08;;;;;;;6.91;100.00;103287.41;2106684;28;20103;-69
2021/12/16 05:18:00;;;;;;;68.13;30.80;;;;;;;6.89;100.00;103294.28;2106780;28;20095;-69
2021/12/16 05:19:01;;;;;;;60.20;31.70;;;;;;;6.89;100.00;103295.19;2097807;28;20050;-68
2021/12/16 05:20:08;;;;;;;56.70;30.03;;;;;;;6.81;100.00;103291.63;2097852;28;20020;-68
2021/12/16 05:21:15;;;;;;;56.95;30.92;;;;;;;6.78;100.00;103294.16;2097690;28;20024;-69
2021/12/16 05:24:54;;;;;;;64.88;30.77;;;;;;;6.70;100.00;103286.25;2106879;28;20048;-68
2021/12/16 05:26:15;;;;;;;;;;;;;;;6.68;100.00;103291.44;2107031;28;20051;-69
2021/12/16 05:27:16;;;;;;;55.25;27.45;;;;;;;6.65;100.00;103295.72;2106805;28;19907;-68
2021/12/16 05:28:19;;;;;;;60.63;29.90;;;;;;;6.64;100.00;103294.84;2106718;28;20112;-68
2021/12/16 05:29:19;;;;;;;51.35;28.75;;;;;;;6.61;100.00;103288.75;2106692;28;20476;-68
2021/12/16 05:30:20;;;;;;;52.37;29.77;;;;;;;6.60;100.00;103297.38;2106686;28;20028;-68
2021/12/16 05:31:22;;;;;;;57.63;30.40;;;;;;;6.58;100.00;103297.38;2106704;28;20058;-69
2021/12/16 05:32:23;;;;;;;65.55;30.15;;;;;;;6.57;100.00;103303.41;2106681;28;20024;-68
2021/12/16 05:33:25;;;;;;;56.55;30.38;;;;;;;6.54;100.00;103303.38;2106679;28;20096;-68
2021/12/16 05:34:25;;;;;;;54.88;30.83;;;;;;;6.55;100.00;103305.09;2106616;28;20024;-69
2021/12/16 05:35:26;;;;;;;58.17;30.80;;;;;;;6.50;100.00;103310.22;2106712;28;20114;-68
2021/12/16 05:36:27;;;;;;;;;;;;;;;6.48;100.00;103308.44;2107041;28;20032;-70
2021/12/16 05:37:27;;;;;;;53.78;25.90;;;;;;;6.45;100.00;103304.09;2106759;28;20595;-69
2021/12/16 05:38:29;;;;;;;55.03;29.52;;;;;;;6.42;100.00;103304.03;2106726;28;20028;-69
2021/12/16 05:39:29;;;;;;;55.25;29.42;;;;;;;6.38;100.00;103303.13;2106609;28;20081;-68
2021/12/16 05:40:30;;;;;;;54.47;29.80;;;;;;;6.41;100.00;103302.31;2106752;28;20109;-69
2021/12/16 05:41:31;;;;;;;55.55;29.08;;;;;;;6.42;100.00;103301.44;2106651;28;20042;-68
2021/12/16 05:42:31;;;;;;;57.63;29.67;;;;;;;6.35;100.00;103302.19;2097637;28;20024;-67
2021/12/16 05:43:32;;;;;;;57.97;29.07;;;;;;;6.28;100.00;103307.31;2097796;28;20301;-69
2021/12/16 05:44:32;;;;;;;55.75;29.73;;;;;;;6.27;100.00;103309.88;2106730;28;20020;-69
2021/12/16 05:45:33;;;;;;;56.93;29.67;;;;;;;6.24;100.00;103315.91;2106682;28;20032;-68
2021/12/16 05:46:34;;;;;;;56.70;32.47;;;;;;;6.18;100.00;103319.25;2097545;28;20028;-68
2021/12/16 05:47:36;;;;;;;58.80;30.83;;;;;;;6.18;100.00;103315.78;2097667;28;20374;-68
2021/12/16 05:48:39;;;;;;;50.75;28.88;;;;;;;6.22;100.00;103325.34;2106463;28;20488;-68
2021/12/16 05:49:39;;;;;;;60.22;30.30;;;;;;;6.23;100.00;103318.47;2106571;28;20073;-68
2021/12/16 05:50:44;;;;;;;53.00;30.83;;;;;;;6.20;100.00;103311.50;2106613;28;20105;-67
2021/12/16 05:51:48;;;;;;;52.65;30.70;;;;;;;6.16;100.00;103322.69;2106612;28;20016;-68
2021/12/16 05:52:48;;;;;;;54.35;30.08;;;;;;;6.13;100.00;103320.03;2097547;28;20094;-68
2021/12/16 05:53:50;;;;;;;58.50;31.37;;;;;;;6.11;100.00;103319.13;2097763;28;20095;-68
2021/12/16 05:54:51;;;;;;;57.83;30.85;;;;;;;6.10;100.00;103320.88;2097569;28;20150;-69
2021/12/16 05:55:52;;;;;;;53.63;30.23;;;;;;;6.11;100.00;103330.38;2097777;28;20024;-69
2021/12/16 05:56:52;;;;;;;59.92;30.95;;;;;;;6.08;100.00;103325.13;2106594;28;20020;-68
2021/12/16 05:57:53;;;;;;;57.13;30.00;;;;;;;6.03;100.00;103326.75;2106640;28;20489;-68
2021/12/16 05:58:53;;;;;;;55.00;29.88;;;;;;;6.01;100.00;103323.25;2106577;28;20500;-68
2021/12/16 05:59:54;;;;;;;51.10;28.83;;;;;;;5.97;100.00;103331.81;2106603;28;20040;-68
2021/12/16 06:00:58;;;;;;;56.20;29.37;;;;;;;5.94;100.00;103327.47;2106561;28;20028;-68
2021/12/16 06:01:59;;;;;;;53.08;28.83;;;;;;;5.95;100.00;103333.53;2106566;28;20414;-69
2021/12/16 06:02:59;;;;;;;55.93;30.20;;;;;;;5.92;100.00;103337.81;2097471;28;20095;-68
2021/12/16 06:04:00;;;;;;;58.88;30.77;;;;;;;5.90;100.00;103336.03;2097561;28;20675;-68
2021/12/16 06:05:01;;;;;;;54.60;29.30;;;;;;;5.87;100.00;103341.16;2106645;28;20107;-69
2021/12/16 06:06:02;;;;;;;52.30;28.93;;;;;;;5.85;100.00;103343.72;2097578;28;20099;-68
2021/12/16 06:07:02;;;;;;;57.28;29.70;;;;;;;5.87;100.00;103343.75;2097648;28;20093;-68
2021/12/16 06:08:04;;;;;;;52.77;30.00;;;;;;;5.86;100.00;103348.09;2106533;28;20516;-68
2021/12/16 06:09:07;;;;;;;49.42;28.02;;;;;;;5.85;100.00;103348.91;2106439;28;20286;-69
2021/12/16 06:10:30;;;;;;;58.38;30.10;;;;;;;5.83;100.00;103355.81;2105856;28;20110;-69
2021/12/16 06:11:31;;;;;;;47.03;25.67;;;;;;;5.73;100.00;103348.69;2106128;28;20107;-69
2021/12/16 06:12:32;;;;;;;50.05;27.48;;;;;;;5.70;100.00;103348.63;2106545;28;20095;-69
2021/12/16 06:13:41;;;;;;;53.73;27.07;;;;;;;5.71;100.00;103350.41;2106465;28;20024;-69
2021/12/16 06:14:48;;;;;;;53.92;29.88;;;;;;;5.73;100.00;103348.69;2106499;28;20111;-68
2021/12/16 06:27:32;;;;;;;51.95;27.95;;;;;;;5.44;100.00;103347.28;2106589;28;20032;-69
2021/12/16 06:28:35;;;;;;;47.80;27.13;;;;;;;5.44;100.00;103359.38;2106420;28;20027;-69
2021/12/16 06:29:38;;;;;;;56.25;28.40;;;;;;;5.36;100.00;103347.16;2108159;28;20023;-69
2021/12/16 06:30:42;;;;;;;51.35;28.42;;;;;;;5.33;100.00;103357.44;2108109;28;20039;-69
2021/12/16 06:31:42;;;;;;;53.13;27.58;;;;;;;5.26;100.00;103360.75;2108131;28;20103;-68
2021/12/16 06:32:43;;;;;;;51.20;29.50;;;;;;;5.22;100.00;103359.81;2108184;28;20308;-68
2021/12/16 06:33:44;;;;;;;57.33;27.65;;;;;;;5.15;100.00;103361.41;2108075;28;20801;-69
2021/12/16 06:34:45;;;;;;;57.07;29.03;;;;;;;5.19;100.00;103361.47;2108082;28;20028;-70
2021/12/16 06:35:47;;;;;;;54.42;30.27;;;;;;;5.22;100.00;103358.94;2107973;28;20027;-68
2021/12/16 06:36:47;;;;;;;50.90;28.38;;;;;;;5.17;100.00;103358.88;2107876;28;20019;-69
2021/12/16 06:37:48;;;;;;;50.60;28.80;;;;;;;5.14;100.00;103353.63;2107923;28;20027;-68
2021/12/16 06:38:48;;;;;;;56.65;28.50;;;;;;;5.13;100.00;103363.09;2107973;28;20020;-70
2021/12/16 06:39:49;;;;;;;49.43;27.23;;;;;;;5.09;100.00;103366.44;2108037;28;20016;-68
2021/12/16 06:40:49;;;;;;;56.35;29.02;;;;;;;5.16;100.00;103367.44;2107314;28;20082;-68
2021/12/16 06:41:50;;;;;;;51.83;26.00;;;;;;;5.11;100.00;103364.78;2107372;28;20020;-68
2021/12/16 06:42:53;;;;;;;47.90;26.98;;;;;;;5.10;100.00;103357.84;2107962;28;20032;-68
2021/12/16 06:43:56;;;;;;;55.22;27.80;;;;;;;5.08;100.00;103359.53;2107917;28;20021;-68
2021/12/16 06:45:04;;;;;;;46.67;27.35;;;;;;;5.04;100.00;103357.72;2098911;28;20024;-70
2021/12/16 06:46:08;;;;;;;49.50;27.55;;;;;;;5.04;100.00;103357.72;2099771;28;20032;-68
2021/12/16 06:47:16;;;;;;;58.08;29.40;;;;;;;5.02;100.00;103356.81;2107381;28;20028;-68
2021/12/16 06:48:22;;;;;;;46.10;25.42;;;;;;;5.01;100.00;103368.00;2107824;28;20032;-68
2021/12/16 06:49:23;;;;;;;49.28;28.05;;;;;;;4.96;100.00;103364.44;2098692;28;20025;-68
2021/12/16 06:50:39;;;;;;;42.17;24.13;;;;;;;4.88;100.00;103365.16;2099007;28;20017;-68
2021/12/16 06:52:48;;;;;;;43.60;25.17;;;;;;;4.78;100.00;103365.78;2107283;28;20093;-68
2021/12/16 06:56:08;;;;;;;50.55;25.60;;;;;;;4.69;100.00;103361.25;2107905;28;20097;-67
2021/12/16 06:58:30;;;;;;;42.17;24.25;;;;;;;4.60;100.00;103372.28;2107954;28;20085;-68
2021/12/16 06:59:35;;;;;;;42.58;24.83;;;;;;;4.56;100.00;103377.34;2107777;28;20050;-68
2021/12/16 07:00:41;;;;;;;45.80;25.95;;;;;;;4.47;100.00;103380.56;2107733;28;20027;-69
2021/12/16 07:01:49;;;;;;;45.50;24.98;;;;;;;4.38;100.00;103382.09;2107790;28;20106;-68
2021/12/16 07:03:58;;;;;;;43.47;24.73;;;;;;;4.35;100.00;103376.84;2107695;28;20031;-68
2021/12/16 07:04:58;;;;;;;43.83;23.48;;;;;;;4.45;100.00;103377.94;2107663;28;20111;-68
2021/12/16 07:05:59;;;;;;;51.37;27.63;;;;;;;4.56;100.00;103375.63;2107687;28;20031;-67
2021/12/16 07:07:00;;;;;;;47.83;25.20;;;;;;;4.57;100.00;103379.97;2107653;28;20049;-67
2021/12/16 07:08:03;;;;;;;42.10;24.55;;;;;;;4.52;100.00;103379.00;2107634;28;20020;-67
2021/12/16 07:09:13;;;;;;;40.00;23.80;;;;;;;4.47;100.00;103385.75;2107591;28;20032;-68
2021/12/16 07:10:15;;;;;;;39.58;23.65;;;;;;;4.42;100.00;103382.19;2098497;28;20024;-68
2021/12/16 07:11:16;;;;;;;47.22;26.77;;;;;;;4.50;100.00;103376.38;2098600;28;20016;-68
2021/12/16 07:12:24;;;;;;;46.92;26.33;;;;;;;4.53;100.00;103385.91;2098709;28;20112;-68
2021/12/16 07:13:37;;;;;;;45.85;25.85;;;;;;;4.55;100.00;103391.97;2107628;28;20104;-68
2021/12/16 07:14:39;;;;;;;41.42;26.33;;;;;;;4.56;100.00;103390.28;2107619;28;20024;-67